100LL.CA
Aviation Fuel Pricing for Canadians
Please upgrade your browser - Tested with IE9, FireFox, Chrome, Safari

Fuel Airports Other Help
Prices Economy Info List METAR/TAF Kneeboard Help

Reference Airport: THE PAS, MB
N 53 58 17  W 101 05 28
Provinces to show:

CYQD THE PAS, MB
WEATHER
METARCYQD 230300Z AUTO 07005KT 040V100 9SM CLR M16/M22 A3004 RMK SLP199
TAFTAF CYQD 230040Z 2301/2313 08007KT P6SM BKN100 FM230900 13008KT P6SM FEW160 RMK FCST BASED ON AUTO OBS. NXT FCST BY 230700Z
OTHER SITES

FlightAware

FltPlan

Google Maps

SkyVector
FUEL
FBO 100LL
member
100LL
public
JETA MOGAS
Opr (2022-05-06)2.4632.147
Canada Flight Supplement - CYQD
(opens in new tab/window)


Please Send Updates!

Desktop Version ]  [ Mobile Version ]  [ Disclaimer ]